createdAt,value
2018-05-12T00:02:16.444Z,11.50
2018-05-12T00:04:44.013Z,11.40
2018-05-12T00:07:11.487Z,11.40
2018-05-12T00:09:39.026Z,11.40
2018-05-12T00:12:06.586Z,11.30
2018-05-12T00:14:34.145Z,11.30
2018-05-12T00:17:01.610Z,11.30
2018-05-12T00:19:29.838Z,11.40
2018-05-12T00:21:57.345Z,11.40
2018-05-12T00:24:24.812Z,11.40
2018-05-12T00:26:52.368Z,11.30
2018-05-12T00:29:19.832Z,11.30
2018-05-12T00:31:47.292Z,11.20
2018-05-12T00:34:14.757Z,11.20
2018-05-12T00:36:42.300Z,11.20
2018-05-12T00:39:09.765Z,11.30
2018-05-12T00:41:37.312Z,11.30
2018-05-12T00:44:04.780Z,11.30
2018-05-12T00:46:32.328Z,11.30
2018-05-12T00:48:59.776Z,11.20
2018-05-12T00:51:27.352Z,11.30
2018-05-12T00:53:54.816Z,11.20
2018-05-12T00:56:23.047Z,11.30
2018-05-12T00:58:50.504Z,11.30
2018-05-12T01:01:17.970Z,11.30
2018-05-12T01:03:45.436Z,11.30
2018-05-12T01:06:12.923Z,11.30
2018-05-12T01:08:40.481Z,11.40
2018-05-12T01:11:07.957Z,11.50
2018-05-12T01:13:35.509Z,11.60
2018-05-12T01:16:03.677Z,11.60
2018-05-12T01:18:31.140Z,11.60
2018-05-12T01:20:58.608Z,11.60
2018-05-12T01:23:26.865Z,11.50
2018-05-12T01:25:54.337Z,11.50
2018-05-12T01:28:21.884Z,11.40
2018-05-12T01:30:49.344Z,11.40
2018-05-12T01:33:16.821Z,11.40
2018-05-12T01:35:44.360Z,11.50
2018-05-12T01:38:11.917Z,11.50
2018-05-12T01:40:39.482Z,11.50
2018-05-12T01:43:06.942Z,11.60
2018-05-12T01:45:34.413Z,11.60
2018-05-12T01:48:01.873Z,11.70
2018-05-12T01:50:30.137Z,11.80
2018-05-12T01:52:57.600Z,11.80
2018-05-12T01:55:25.149Z,11.80
2018-05-12T01:57:52.708Z,11.80
2018-05-12T02:00:20.196Z,11.90
2018-05-12T02:02:47.727Z,11.90
2018-05-12T02:05:15.289Z,11.90
2018-05-12T02:07:43.508Z,11.90
2018-05-12T02:10:11.036Z,11.80
2018-05-12T02:12:38.493Z,11.80
2018-05-12T02:15:06.042Z,11.80
2018-05-12T02:17:33.605Z,11.80
2018-05-12T02:20:01.072Z,11.70
2018-05-12T02:22:28.533Z,11.70
2018-05-12T02:24:56.044Z,11.70
2018-05-12T02:27:23.536Z,11.70
2018-05-12T02:29:50.992Z,11.70
2018-05-12T02:32:18.554Z,11.60
2018-05-12T02:34:46.075Z,11.60
2018-05-12T02:37:14.648Z,11.60
2018-05-12T02:39:42.105Z,11.50
2018-05-12T02:42:09.616Z,11.50
2018-05-12T02:44:37.176Z,11.50
2018-05-12T02:47:04.745Z,11.50
2018-05-12T02:49:32.980Z,11.40
2018-05-12T02:52:00.461Z,11.40
2018-05-12T02:54:28.033Z,11.40
2018-05-12T02:56:55.588Z,11.40
2018-05-12T02:59:23.054Z,11.40
2018-05-12T03:01:50.570Z,11.40
2018-05-12T03:04:18.029Z,11.40
2018-05-12T03:06:45.492Z,11.40
2018-05-12T03:09:12.952Z,11.40
2018-05-12T03:11:40.452Z,11.40
2018-05-12T03:14:07.916Z,11.50
2018-05-12T03:16:35.376Z,11.40
2018-05-12T03:19:03.601Z,11.30
2018-05-12T03:21:31.077Z,11.30
2018-05-12T03:23:58.553Z,11.30
2018-05-12T03:26:26.172Z,11.30
2018-05-12T03:28:53.669Z,11.30
2018-05-12T03:31:21.133Z,11.30
2018-05-12T03:33:48.673Z,11.30
2018-05-12T03:36:16.145Z,11.40
2018-05-12T03:38:43.704Z,11.30
2018-05-12T03:41:11.160Z,11.40
2018-05-12T03:43:38.625Z,11.40
2018-05-12T03:46:06.086Z,11.40
2018-05-12T03:48:33.644Z,11.40
2018-05-12T03:51:01.200Z,11.40
2018-05-12T03:53:28.765Z,11.40
2018-05-12T03:55:56.329Z,11.40
2018-05-12T03:58:23.793Z,11.50
2018-05-12T04:00:51.347Z,11.50
2018-05-12T04:03:18.896Z,11.50
2018-05-12T04:05:58.298Z,11.60
2018-05-12T04:08:37.839Z,11.60
2018-05-12T04:11:17.501Z,11.70
2018-05-12T04:13:44.984Z,11.70
2018-05-12T04:16:12.457Z,11.80
2018-05-12T04:18:40.007Z,11.80
2018-05-12T04:21:08.319Z,11.80
2018-05-12T04:23:35.732Z,11.90
2018-05-12T04:26:03.189Z,11.90
2018-05-12T04:28:30.756Z,11.90
2018-05-12T04:30:58.313Z,11.90
2018-05-12T04:33:25.874Z,12.00
2018-05-12T04:35:53.339Z,12.00
2018-05-12T04:38:20.802Z,12.00
2018-05-12T04:40:48.356Z,12.10
2018-05-12T04:43:15.923Z,12.10
2018-05-12T04:45:43.376Z,12.10
2018-05-12T04:48:10.842Z,12.20
2018-05-12T04:50:38.300Z,12.20
2018-05-12T04:53:05.765Z,12.30
2018-05-12T04:55:33.305Z,12.30
2018-05-12T04:58:00.869Z,12.40
2018-05-12T05:00:28.325Z,12.40
2018-05-12T05:02:55.797Z,12.50
2018-05-12T05:05:23.345Z,12.60
2018-05-12T05:07:50.804Z,12.70
2018-05-12T05:10:18.421Z,12.80
2018-05-12T05:12:45.873Z,13.00
2018-05-12T05:15:13.430Z,13.10
2018-05-12T05:17:40.942Z,13.30
2018-05-12T05:20:08.400Z,13.60
2018-05-12T05:22:36.735Z,14.00
2018-05-12T05:25:04.193Z,14.00
2018-05-12T05:27:31.755Z,14.70
2018-05-12T05:29:59.204Z,15.20
2018-05-12T05:32:26.775Z,15.20
2018-05-12T05:34:54.286Z,15.20
2018-05-12T05:37:21.790Z,15.30
2018-05-12T05:39:49.294Z,15.20
2018-05-12T05:42:16.809Z,15.20
2018-05-12T05:44:44.307Z,15.10
2018-05-12T05:47:11.864Z,15.00
2018-05-12T05:49:39.424Z,14.90
2018-05-12T05:52:06.948Z,14.80
2018-05-12T05:54:34.445Z,14.70
2018-05-12T05:57:02.006Z,14.60
2018-05-12T05:59:29.569Z,14.60
2018-05-12T06:01:57.036Z,14.60
2018-05-12T06:04:24.496Z,14.60
2018-05-12T06:06:52.111Z,14.60
2018-05-12T06:09:19.566Z,14.70
2018-05-12T06:11:47.124Z,14.80
2018-05-12T06:14:14.616Z,14.80
2018-05-12T06:16:42.079Z,14.90
2018-05-12T06:19:09.642Z,14.90
2018-05-12T06:21:37.097Z,15.00
2018-05-12T06:24:04.557Z,15.10
2018-05-12T06:26:32.116Z,15.20
2018-05-12T06:28:59.576Z,15.50
2018-05-12T06:31:27.036Z,15.70
2018-05-12T06:33:54.494Z,16.00
2018-05-12T06:36:22.010Z,16.40
2018-05-12T06:38:49.517Z,16.60
2018-05-12T06:41:17.065Z,16.80
2018-05-12T06:43:44.629Z,17.00
2018-05-12T06:46:12.157Z,17.10
2018-05-12T06:48:39.649Z,17.20
2018-05-12T06:51:07.117Z,17.40
2018-05-12T06:53:34.665Z,17.50
2018-05-12T06:56:02.224Z,17.70
2018-05-12T06:58:29.789Z,17.90
2018-05-12T07:00:57.264Z,18.00
2018-05-12T07:03:25.525Z,18.40
2018-05-12T07:05:52.980Z,18.40
2018-05-12T07:08:20.441Z,18.50
2018-05-12T07:10:47.904Z,18.70
2018-05-12T07:13:15.364Z,18.90
2018-05-12T07:15:42.918Z,19.00
2018-05-12T07:18:10.482Z,19.10
2018-05-12T07:20:38.038Z,19.20
2018-05-12T07:23:05.556Z,19.30
2018-05-12T07:25:33.076Z,19.30
2018-05-12T07:28:01.312Z,19.70
2018-05-12T07:30:28.793Z,19.70
2018-05-12T07:32:56.262Z,19.80
2018-05-12T07:35:23.726Z,19.90
2018-05-12T07:37:51.183Z,19.90
2018-05-12T07:40:18.744Z,20.10
2018-05-12T07:42:46.285Z,20.20
2018-05-12T07:45:13.761Z,20.20
2018-05-12T07:47:41.300Z,20.30
2018-05-12T07:50:08.931Z,20.50
2018-05-12T07:52:36.398Z,20.60
2018-05-12T07:55:03.862Z,20.70
2018-05-12T07:57:31.354Z,20.70
2018-05-12T07:59:58.812Z,20.80
2018-05-12T08:02:27.049Z,21.00
2018-05-12T08:04:54.529Z,20.90
2018-05-12T08:07:22.092Z,21.00
2018-05-12T08:09:49.653Z,21.00
2018-05-12T08:12:17.214Z,21.10
2018-05-12T08:14:44.681Z,21.10
2018-05-12T08:17:12.232Z,21.20
2018-05-12T08:19:39.690Z,21.30
2018-05-12T08:22:07.154Z,21.30
2018-05-12T08:24:34.704Z,21.30
2018-05-12T08:27:02.277Z,21.50
2018-05-12T08:29:29.732Z,21.60
2018-05-12T08:31:57.200Z,21.60
2018-05-12T08:34:24.750Z,21.70
2018-05-12T08:36:52.209Z,21.80
2018-05-12T08:39:19.675Z,21.80
2018-05-12T08:41:47.179Z,22.00
2018-05-12T08:44:14.681Z,22.10
2018-05-12T08:46:42.146Z,22.20
2018-05-12T08:49:09.702Z,22.20
2018-05-12T08:51:37.187Z,22.30
2018-05-12T08:54:05.429Z,22.40
2018-05-12T08:56:32.893Z,22.40
2018-05-12T08:59:00.364Z,22.50
2018-05-12T09:01:27.973Z,22.70
2018-05-12T09:03:55.372Z,22.80
2018-05-12T09:06:22.829Z,23.00
2018-05-12T09:08:50.397Z,23.10
2018-05-12T09:11:17.948Z,22.90
2018-05-12T09:13:45.420Z,22.70
2018-05-12T09:16:12.962Z,22.60
2018-05-12T09:18:40.431Z,22.70
2018-05-12T09:21:07.973Z,22.70
2018-05-12T09:23:35.502Z,22.70
2018-05-12T09:26:02.964Z,22.70
2018-05-12T09:28:30.462Z,22.60
2018-05-12T09:30:57.936Z,22.70
2018-05-12T09:33:25.538Z,22.90
2018-05-12T09:35:53.045Z,22.80
2018-05-12T09:38:20.614Z,22.80
2018-05-12T09:40:48.116Z,22.80
2018-05-12T09:43:15.577Z,23.00
2018-05-12T09:45:43.039Z,23.20
2018-05-12T09:48:10.523Z,23.40
2018-05-12T09:50:38.097Z,23.50
2018-05-12T09:53:06.335Z,22.80
2018-05-12T09:55:33.796Z,23.50
2018-05-12T09:58:01.276Z,23.40
2018-05-12T10:00:28.751Z,23.60
2018-05-12T10:02:56.214Z,23.60
2018-05-12T10:05:23.672Z,23.90
2018-05-12T10:07:51.179Z,24.00
2018-05-12T10:10:18.636Z,23.90
2018-05-12T10:12:46.175Z,24.00
2018-05-12T10:15:13.569Z,24.20
2018-05-12T10:17:41.033Z,24.40
2018-05-12T10:20:08.519Z,24.40
2018-05-12T10:22:36.075Z,24.10
2018-05-12T10:25:03.534Z,24.10
2018-05-12T10:27:31.092Z,24.00
2018-05-12T10:29:58.657Z,24.00
2018-05-12T10:32:26.126Z,23.80
2018-05-12T10:34:53.630Z,23.80
2018-05-12T10:37:21.095Z,23.60
2018-05-12T10:39:48.562Z,23.30
2018-05-12T10:42:16.029Z,23.30
2018-05-12T10:44:43.539Z,23.50
2018-05-12T10:47:10.966Z,23.60
2018-05-12T10:49:38.524Z,23.80
2018-05-12T10:52:05.991Z,24.00
2018-05-12T10:54:33.545Z,24.30
2018-05-12T10:57:01.006Z,24.60
2018-05-12T10:59:28.552Z,24.70
2018-05-12T11:01:56.018Z,24.60
2018-05-12T11:04:23.472Z,24.60
2018-05-12T11:06:51.762Z,24.70
2018-05-12T11:09:19.308Z,24.70
2018-05-12T11:11:46.773Z,24.60
2018-05-12T11:14:14.333Z,24.70
2018-05-12T11:16:42.608Z,24.50
2018-05-12T11:19:10.881Z,24.60
2018-05-12T11:21:38.396Z,24.60
2018-05-12T11:24:05.896Z,24.70
2018-05-12T11:26:33.463Z,24.80
2018-05-12T11:29:01.025Z,24.80
2018-05-12T11:31:28.496Z,24.80
2018-05-12T11:33:55.953Z,24.70
2018-05-12T11:36:24.208Z,24.60
2018-05-12T11:38:51.984Z,24.60
2018-05-12T11:41:20.000Z,24.40
2018-05-12T11:43:47.513Z,24.40
2018-05-12T11:46:15.072Z,24.50
2018-05-12T11:48:42.636Z,24.70
2018-05-12T11:51:10.194Z,24.70
2018-05-12T11:53:37.751Z,24.80
2018-05-12T11:56:05.313Z,24.90
2018-05-12T11:58:33.590Z,25.20
2018-05-12T12:01:01.059Z,25.20
2018-05-12T12:03:28.521Z,25.40
2018-05-12T12:05:55.976Z,25.50
2018-05-12T12:08:23.437Z,25.40
2018-05-12T12:10:51.664Z,25.30
2018-05-12T12:13:19.153Z,25.30
2018-05-12T12:15:46.600Z,25.30
2018-05-12T12:18:14.073Z,25.30
2018-05-12T12:20:41.534Z,25.30
2018-05-12T12:23:09.001Z,25.30
2018-05-12T12:25:36.478Z,25.30
2018-05-12T12:28:04.721Z,25.30
2018-05-12T12:30:32.181Z,25.30
2018-05-12T12:32:59.637Z,25.40
2018-05-12T12:35:27.167Z,25.50
2018-05-12T12:37:54.659Z,25.30
2018-05-12T12:40:22.125Z,25.30
2018-05-12T12:42:49.586Z,25.10
2018-05-12T12:45:17.136Z,24.80
2018-05-12T12:47:44.601Z,24.40
2018-05-12T12:50:12.166Z,24.20
2018-05-12T12:52:39.620Z,24.00
2018-05-12T12:55:07.232Z,23.90
2018-05-12T12:57:34.729Z,23.80
2018-05-12T13:00:02.189Z,23.90
2018-05-12T13:02:29.656Z,24.00
2018-05-12T13:04:57.254Z,24.10
2018-05-12T13:07:24.672Z,24.00
2018-05-12T13:09:52.225Z,24.10
2018-05-12T13:12:19.789Z,24.10
2018-05-12T13:14:47.268Z,24.20
2018-05-12T13:17:15.500Z,24.20
2018-05-12T13:19:42.977Z,24.20
2018-05-12T13:22:10.501Z,24.40
2018-05-12T13:24:37.896Z,24.80
2018-05-12T13:27:05.353Z,25.10
2018-05-12T13:29:32.910Z,25.20
2018-05-12T13:32:00.473Z,25.20
2018-05-12T13:34:27.945Z,25.30
2018-05-12T13:36:56.213Z,24.80
2018-05-12T13:39:23.664Z,24.80
2018-05-12T13:41:51.224Z,24.60
2018-05-12T13:44:18.789Z,24.50
2018-05-12T13:46:46.249Z,24.50
2018-05-12T13:49:13.805Z,24.40
2018-05-12T13:51:41.261Z,24.20
2018-05-12T13:54:08.826Z,24.20
2018-05-12T13:56:36.383Z,24.50
2018-05-12T13:59:03.836Z,24.90
2018-05-12T14:01:31.409Z,25.10
2018-05-12T14:03:58.869Z,25.20
2018-05-12T14:06:26.332Z,25.10
2018-05-12T14:08:53.890Z,25.10
2018-05-12T14:11:21.349Z,25.00
2018-05-12T14:13:48.903Z,24.90
2018-05-12T14:16:16.462Z,25.10
2018-05-12T14:18:43.921Z,25.10
2018-05-12T14:21:11.393Z,25.10
2018-05-12T14:23:38.852Z,25.00
2018-05-12T14:26:07.088Z,24.70
2018-05-12T14:28:34.546Z,24.70
2018-05-12T14:31:02.038Z,24.50
2018-05-12T14:33:29.586Z,24.50
2018-05-12T14:35:57.041Z,24.30
2018-05-12T14:38:24.666Z,24.10
2018-05-12T14:40:52.226Z,24.10
2018-05-12T14:43:19.673Z,24.00
2018-05-12T14:45:47.142Z,24.00
2018-05-12T14:48:14.637Z,23.90
2018-05-12T14:50:42.161Z,23.80
2018-05-12T14:53:09.657Z,23.90
2018-05-12T14:55:37.221Z,23.90
2018-05-12T14:58:04.781Z,23.90
2018-05-12T15:00:32.244Z,23.80
2018-05-12T15:02:59.711Z,23.80
2018-05-12T15:05:27.257Z,23.70
2018-05-12T15:07:54.718Z,23.70
2018-05-12T15:10:22.278Z,23.60
2018-05-12T15:12:49.742Z,23.60
2018-05-12T15:15:17.212Z,23.50
2018-05-12T15:17:44.674Z,23.50
2018-05-12T15:20:12.988Z,23.80
2018-05-12T15:22:40.484Z,23.80
2018-05-12T15:25:07.944Z,24.00
2018-05-12T15:27:35.404Z,24.00
2018-05-12T15:30:02.961Z,24.00
2018-05-12T15:32:30.416Z,24.00
2018-05-12T15:34:57.989Z,24.10
2018-05-12T15:37:25.548Z,24.20
2018-05-12T15:39:53.017Z,24.20
2018-05-12T15:42:20.477Z,24.20
2018-05-12T15:44:47.933Z,24.20
2018-05-12T15:47:15.475Z,24.20
2018-05-12T15:49:43.039Z,24.20
2018-05-12T15:52:10.593Z,24.20
2018-05-12T15:54:38.160Z,24.20
2018-05-12T15:57:05.629Z,24.10
2018-05-12T15:59:33.859Z,24.10
2018-05-12T16:02:01.356Z,24.00
2018-05-12T16:04:28.910Z,24.00
2018-05-12T16:06:56.469Z,24.10
2018-05-12T16:09:24.032Z,24.10
2018-05-12T16:11:51.594Z,24.10
2018-05-12T16:14:19.148Z,24.00
2018-05-12T16:16:46.612Z,24.00
2018-05-12T16:19:14.176Z,24.10
2018-05-12T16:21:41.625Z,24.10
2018-05-12T16:24:09.082Z,24.10
2018-05-12T16:26:36.538Z,24.00
2018-05-12T16:29:03.995Z,23.90
2018-05-12T16:31:31.637Z,23.90
2018-05-12T16:33:59.081Z,23.80
2018-05-12T16:36:26.580Z,23.80
2018-05-12T16:38:54.145Z,23.80
2018-05-12T16:41:21.617Z,23.80
2018-05-12T16:43:49.172Z,23.90
2018-05-12T16:46:16.680Z,23.90
2018-05-12T16:48:44.227Z,24.00
2018-05-12T16:51:11.817Z,24.00
2018-05-12T16:53:39.197Z,24.00
2018-05-12T16:56:07.205Z,24.00
2018-05-12T16:58:35.429Z,23.90
2018-05-12T17:01:03.787Z,23.90
2018-05-12T17:03:31.344Z,23.90
2018-05-12T17:05:58.840Z,23.90
2018-05-12T17:08:26.300Z,23.90
2018-05-12T17:10:53.761Z,23.90
2018-05-12T17:13:21.345Z,23.90
2018-05-12T17:15:48.689Z,23.90
2018-05-12T17:18:16.237Z,23.90
2018-05-12T17:20:43.693Z,23.90
2018-05-12T17:23:11.169Z,23.80
2018-05-12T17:25:38.620Z,23.80
2018-05-12T17:28:06.169Z,23.70
2018-05-12T17:30:33.625Z,23.80
2018-05-12T17:33:01.198Z,23.70
2018-05-12T17:35:28.749Z,23.60
2018-05-12T17:37:56.355Z,23.50
2018-05-12T17:40:23.873Z,23.50
2018-05-12T17:42:52.101Z,23.40
2018-05-12T17:45:19.600Z,23.40
2018-05-12T17:47:47.195Z,23.40
2018-05-12T17:50:15.426Z,23.20
2018-05-12T17:52:42.961Z,23.20
2018-05-12T17:55:10.527Z,23.20
2018-05-12T17:57:38.017Z,23.20
2018-05-12T18:00:05.581Z,23.10
2018-05-12T18:02:33.822Z,22.90
2018-05-12T18:05:01.316Z,22.90
2018-05-12T18:07:28.881Z,22.80
2018-05-12T18:09:56.337Z,22.70
2018-05-12T18:12:23.892Z,22.60
2018-05-12T18:14:51.357Z,22.40
2018-05-12T18:17:19.011Z,22.20
2018-05-12T18:19:46.380Z,22.10
2018-05-12T18:22:13.850Z,21.90
2018-05-12T18:24:41.308Z,21.80
2018-05-12T18:27:09.566Z,21.60
2018-05-12T18:29:37.129Z,21.60
2018-05-12T18:32:04.684Z,21.50
2018-05-12T18:34:32.309Z,21.50
2018-05-12T18:36:59.765Z,21.40
2018-05-12T18:39:27.227Z,21.30
2018-05-12T18:41:54.720Z,21.30
2018-05-12T18:44:22.280Z,21.30
2018-05-12T18:46:49.711Z,21.20
2018-05-12T18:49:17.170Z,21.20
2018-05-12T18:51:44.659Z,21.10
2018-05-12T18:54:12.220Z,21.10
2018-05-12T18:56:40.504Z,21.00
2018-05-12T18:59:07.912Z,21.00
2018-05-12T19:01:35.476Z,21.00
2018-05-12T19:04:02.934Z,20.90
2018-05-12T19:06:30.424Z,20.80
2018-05-12T19:08:58.811Z,20.70
2018-05-12T19:11:26.365Z,20.70
2018-05-12T19:13:53.929Z,20.50
2018-05-12T19:16:21.389Z,20.40
2018-05-12T19:18:48.873Z,20.30
2018-05-12T19:21:17.125Z,20.10
2018-05-12T19:23:44.582Z,20.00
2018-05-12T19:26:12.044Z,20.00
2018-05-12T19:28:39.500Z,19.90
2018-05-12T19:31:07.060Z,19.80
2018-05-12T19:33:34.613Z,19.80
2018-05-12T19:36:02.194Z,19.70
2018-05-12T19:38:29.740Z,19.60
2018-05-12T19:40:57.296Z,19.60
2018-05-12T19:43:24.761Z,19.50
2018-05-12T19:45:52.227Z,19.40
2018-05-12T19:48:19.676Z,19.30
2018-05-12T19:50:47.296Z,19.30
2018-05-12T19:53:14.794Z,19.20
2018-05-12T19:55:42.262Z,19.10
2018-05-12T19:58:10.497Z,18.90
2018-05-12T20:00:37.957Z,18.80
2018-05-12T20:03:05.421Z,18.80
2018-05-12T20:05:32.889Z,18.70
2018-05-12T20:08:00.357Z,18.60
2018-05-12T20:10:27.819Z,18.50
2018-05-12T20:12:55.277Z,18.40
2018-05-12T20:15:23.561Z,18.30
2018-05-12T20:17:51.017Z,18.20
2018-05-12T20:20:18.828Z,18.20
2018-05-12T20:22:46.341Z,18.10
2018-05-12T20:25:13.796Z,18.00
2018-05-12T20:27:41.352Z,17.90
2018-05-12T20:30:08.925Z,17.90
2018-05-12T20:32:36.435Z,17.80
2018-05-12T20:35:03.895Z,17.70
2018-05-12T20:37:31.492Z,17.60
2018-05-12T20:39:58.913Z,17.50
2018-05-12T20:42:26.369Z,17.50
2018-05-12T20:44:53.828Z,17.50
2018-05-12T20:47:21.294Z,17.40
2018-05-12T20:49:48.749Z,17.40
2018-05-12T20:52:16.222Z,17.30
2018-05-12T20:54:43.705Z,17.30
2018-05-12T20:57:11.161Z,17.20
2018-05-12T20:59:38.637Z,17.20
2018-05-12T21:02:06.097Z,17.10
2018-05-12T21:04:33.636Z,17.10
2018-05-12T21:07:01.105Z,17.10
2018-05-12T21:09:29.341Z,17.00
2018-05-12T21:11:56.798Z,17.00
2018-05-12T21:14:24.301Z,17.00
2018-05-12T21:16:51.768Z,17.00
2018-05-12T21:19:19.993Z,16.90
2018-05-12T21:21:47.461Z,16.90
2018-05-12T21:24:14.939Z,16.80
2018-05-12T21:26:42.409Z,16.80
2018-05-12T21:29:09.965Z,16.80
2018-05-12T21:31:37.521Z,16.70
2018-05-12T21:34:04.993Z,16.70
2018-05-12T21:36:32.457Z,16.60
2018-05-12T21:39:00.694Z,16.50
2018-05-12T21:41:28.172Z,16.50
2018-05-12T21:43:55.730Z,16.50
2018-05-12T21:46:23.185Z,16.40
2018-05-12T21:48:50.645Z,16.30
2018-05-12T21:51:18.109Z,16.30
2018-05-12T21:53:45.565Z,16.20
2018-05-12T21:56:13.130Z,16.10
2018-05-12T21:58:40.585Z,16.10
2018-05-12T22:01:08.057Z,16.10
2018-05-12T22:03:36.308Z,16.10
2018-05-12T22:06:03.878Z,16.00
2018-05-12T22:08:31.497Z,16.00
2018-05-12T22:10:58.954Z,16.00
2018-05-12T22:13:26.410Z,15.90
2018-05-12T22:15:53.913Z,15.90
2018-05-12T22:18:21.472Z,15.80
2018-05-12T22:20:49.324Z,15.70
2018-05-12T22:23:16.772Z,15.60
2018-05-12T22:25:44.232Z,15.60
2018-05-12T22:28:11.693Z,15.60
2018-05-12T22:30:39.160Z,15.50
2018-05-12T22:33:06.622Z,15.50
2018-05-12T22:35:34.076Z,15.40
2018-05-12T22:38:01.650Z,15.40
2018-05-12T22:40:31.904Z,15.40
2018-05-12T22:43:00.148Z,15.40
2018-05-12T22:45:27.713Z,15.30
2018-05-12T22:47:55.268Z,15.30
2018-05-12T22:50:22.824Z,15.30
2018-05-12T22:52:50.349Z,15.20
2018-05-12T22:55:17.845Z,15.20
2018-05-12T22:57:45.404Z,15.20
2018-05-12T23:00:13.680Z,15.10
2018-05-12T23:02:41.249Z,15.00
2018-05-12T23:05:08.709Z,15.00
2018-05-12T23:07:36.260Z,14.90
2018-05-12T23:10:03.905Z,14.90
2018-05-12T23:12:31.386Z,14.90
2018-05-12T23:14:58.942Z,14.80
2018-05-12T23:17:26.500Z,14.80
2018-05-12T23:19:53.969Z,14.70
2018-05-12T23:22:21.524Z,14.70
2018-05-12T23:24:49.082Z,14.70
2018-05-12T23:27:16.541Z,14.60
2018-05-12T23:29:44.816Z,14.50
2018-05-12T23:32:12.376Z,14.50
2018-05-12T23:34:39.840Z,14.40
2018-05-12T23:37:07.399Z,14.40
2018-05-12T23:39:34.956Z,14.40
2018-05-12T23:42:02.478Z,14.40
2018-05-12T23:44:29.934Z,14.30
2018-05-12T23:46:57.496Z,14.30
2018-05-12T23:49:25.006Z,14.20
2018-05-12T23:51:52.561Z,14.10
2018-05-12T23:54:20.028Z,14.00
2018-05-12T23:56:47.488Z,13.90
2018-05-12T23:59:15.029Z,13.80
